Time;durP1;ratioP1;P1;durP2;ratioP2;P2;SDS_P1;SDS_P2;PMS_P1;PMS_P2;Temp;Humidity;BMP_temperature;BMP_pressure;BME280_temperature;BME280_humidity;BME280_pressure;Samples;Min_cycle;Max_cycle;Signal;HPM_P1;HPM_P2
2023/07/18 00:01:58;;;;;;;0.40;0.40;;;;;;;;;;4993920;28;20195;-84
2023/07/18 00:04:28;;;;;;;0.40;0.40;;;;;;;;;;4993158;28;20228;-84
2023/07/18 00:06:57;;;;;;;1.37;1.33;;;;;;;;;;4994042;28;20214;-84
2023/07/18 00:09:28;;;;;;;1.27;0.97;;;;;;;;;;4993207;28;20234;-84
2023/07/18 00:11:56;;;;;;;0.40;0.40;;;;;;;;;;4993728;28;20204;-83
2023/07/18 00:14:25;;;;;;;0.37;0.37;;;;;;;;;;4992946;28;20307;-83
2023/07/18 00:16:53;;;;;;;0.30;0.30;;;;;;;;;;4993762;28;20221;-83
2023/07/18 00:19:22;;;;;;;5.73;3.10;;;;;;;;;;4993383;28;20305;-83
2023/07/18 00:21:50;;;;;;;1.77;1.67;;;;;;;;;;4993726;28;20225;-83
2023/07/18 00:24:19;;;;;;;1.80;0.70;;;;;;;;;;4993255;28;20194;-84
2023/07/18 00:26:49;;;;;;;1.50;0.83;;;;;;;;;;4993727;28;20200;-83
2023/07/18 00:29:17;;;;;;;0.33;0.33;;;;;;;;;;4993741;28;20250;-83
2023/07/18 00:31:46;;;;;;;0.60;0.60;;;;;;;;;;4993089;28;20209;-83
2023/07/18 00:34:14;;;;;;;0.30;0.30;;;;;;;;;;4993109;28;20254;-83
2023/07/18 00:36:43;;;;;;;3.37;1.57;;;;;;;;;;4993210;28;20210;-83
2023/07/18 00:39:12;;;;;;;0.30;0.30;;;;;;;;;;5008270;28;20238;-83
2023/07/18 00:41:41;;;;;;;0.30;0.30;;;;;;;;;;5012876;28;20236;-83
2023/07/18 00:44:11;;;;;;;2.10;2.00;;;;;;;;;;5013262;28;20261;-83
2023/07/18 00:46:39;;;;;;;0.50;0.50;;;;;;;;;;5012890;28;20216;-83
2023/07/18 00:49:08;;;;;;;2.07;1.97;;;;;;;;;;5012221;28;20206;-83
2023/07/18 00:51:36;;;;;;;0.30;0.30;;;;;;;;;;5012433;28;20192;-83
2023/07/18 00:54:05;;;;;;;5.10;1.33;;;;;;;;;;5012988;28;20339;-84
2023/07/18 00:56:38;;;;;;;2.13;0.80;;;;;;;;;;5012607;28;20289;-83
2023/07/18 00:59:08;;;;;;;4.60;1.60;;;;;;;;;;5012278;28;20215;-83
2023/07/18 01:01:38;;;;;;;0.40;0.40;;;;;;;;;;5012588;28;20209;-83
2023/07/18 01:04:08;;;;;;;1.27;0.70;;;;;;;;;;5012516;28;20269;-83
2023/07/18 01:06:37;;;;;;;0.40;0.40;;;;;;;;;;5011879;28;20227;-83
2023/07/18 01:09:06;;;;;;;3.00;1.13;;;;;;;;;;5012853;28;20229;-83
2023/07/18 01:11:34;;;;;;;0.63;0.63;;;;;;;;;;5012690;28;20257;-83
2023/07/18 01:14:03;;;;;;;0.37;0.37;;;;;;;;;;5011999;28;20220;-83
2023/07/18 01:16:31;;;;;;;0.57;0.57;;;;;;;;;;5012190;28;20199;-83
2023/07/18 01:19:01;;;;;;;0.60;0.60;;;;;;;;;;5012010;28;20200;-84
2023/07/18 01:21:31;;;;;;;7.53;1.27;;;;;;;;;;5012244;28;20232;-84
2023/07/18 01:24:00;;;;;;;2.60;2.50;;;;;;;;;;5011694;28;20206;-84
2023/07/18 01:26:28;;;;;;;0.30;0.30;;;;;;;;;;5012217;28;20200;-83
2023/07/18 01:28:56;;;;;;;2.67;1.57;;;;;;;;;;5012102;28;20220;-84
2023/07/18 01:31:25;;;;;;;0.40;0.40;;;;;;;;;;5012144;28;20209;-84
2023/07/18 01:33:53;;;;;;;0.63;0.63;;;;;;;;;;5011838;28;20215;-84
2023/07/18 01:36:22;;;;;;;7.77;2.60;;;;;;;;;;5012240;28;20213;-83
2023/07/18 01:38:52;;;;;;;12.53;2.73;;;;;;;;;;5011869;28;20235;-84
2023/07/18 01:41:21;;;;;;;4.13;1.77;;;;;;;;;;5011810;28;20238;-83
2023/07/18 01:43:49;;;;;;;1.20;0.97;;;;;;;;;;5012579;28;20203;-83
2023/07/18 01:46:18;;;;;;;9.37;3.53;;;;;;;;;;5012126;28;20192;-83
2023/07/18 01:48:46;;;;;;;7.80;3.40;;;;;;;;;;5011616;28;20225;-83
2023/07/18 01:51:15;;;;;;;13.93;3.33;;;;;;;;;;5011555;28;20230;-83
2023/07/18 01:53:44;;;;;;;6.60;3.30;;;;;;;;;;5012147;28;20238;-83
2023/07/18 01:56:14;;;;;;;9.40;4.40;;;;;;;;;;5011883;28;20235;-83
2023/07/18 01:58:42;;;;;;;6.43;3.77;;;;;;;;;;5011485;28;20211;-83
2023/07/18 02:01:10;;;;;;;3.47;2.03;;;;;;;;;;5011626;28;20196;-83
2023/07/18 02:03:39;;;;;;;7.17;2.73;;;;;;;;;;5012131;28;20238;-84
2023/07/18 02:06:09;;;;;;;5.33;2.93;;;;;;;;;;5011469;28;20201;-83
2023/07/18 02:08:37;;;;;;;6.53;2.13;;;;;;;;;;5011225;28;20196;-83
2023/07/18 02:11:06;;;;;;;5.47;2.07;;;;;;;;;;5011768;28;20204;-83
2023/07/18 02:13:36;;;;;;;2.77;2.07;;;;;;;;;;5015628;28;20200;-83
2023/07/18 02:16:05;;;;;;;3.90;1.53;;;;;;;;;;5015107;28;20235;-83
2023/07/18 02:18:33;;;;;;;1.80;1.70;;;;;;;;;;5015492;28;20200;-83
2023/07/18 02:21:01;;;;;;;13.07;4.27;;;;;;;;;;5015923;28;20207;-83
2023/07/18 02:23:30;;;;;;;10.50;4.33;;;;;;;;;;5015498;28;20202;-83
2023/07/18 02:25:58;;;;;;;10.33;3.60;;;;;;;;;;5015353;28;20204;-83
2023/07/18 02:28:27;;;;;;;15.03;5.30;;;;;;;;;;5015085;28;20231;-83
2023/07/18 02:30:57;;;;;;;12.90;4.20;;;;;;;;;;5015524;28;20218;-83
2023/07/18 02:33:25;;;;;;;13.07;4.03;;;;;;;;;;5014568;28;20203;-83
2023/07/18 02:35:54;;;;;;;11.60;4.40;;;;;;;;;;5015342;28;20227;-83
2023/07/18 02:38:23;;;;;;;12.07;4.13;;;;;;;;;;5014882;28;20267;-83
2023/07/18 02:40:51;;;;;;;11.57;3.83;;;;;;;;;;5015053;28;20202;-83
2023/07/18 02:43:20;;;;;;;2.03;1.80;;;;;;;;;;5014947;28;20208;-83
2023/07/18 02:45:48;;;;;;;11.30;4.43;;;;;;;;;;5015360;28;20204;-81
2023/07/18 02:48:19;;;;;;;10.87;3.27;;;;;;;;;;5015148;28;20200;-83
2023/07/18 02:50:49;;;;;;;5.10;3.73;;;;;;;;;;5014616;28;20200;-83
2023/07/18 02:53:18;;;;;;;4.67;2.70;;;;;;;;;;5014948;28;20290;-83
2023/07/18 02:55:49;;;;;;;4.57;3.10;;;;;;;;;;5015059;28;20223;-83
2023/07/18 02:58:17;;;;;;;3.73;1.47;;;;;;;;;;5014512;28;20281;-83
2023/07/18 03:00:45;;;;;;;5.00;2.30;;;;;;;;;;5014369;28;20199;-83
2023/07/18 03:03:14;;;;;;;5.50;1.77;;;;;;;;;;5014919;28;20207;-83
2023/07/18 03:05:44;;;;;;;4.70;3.17;;;;;;;;;;5014855;28;20206;-83
2023/07/18 03:08:13;;;;;;;10.83;5.03;;;;;;;;;;5014121;28;20200;-83
2023/07/18 03:10:44;;;;;;;2.80;1.50;;;;;;;;;;5014455;28;20222;-83
2023/07/18 03:13:12;;;;;;;3.23;2.27;;;;;;;;;;5014735;28;20207;-83
2023/07/18 03:15:41;;;;;;;12.13;5.03;;;;;;;;;;5014153;28;20223;-83
2023/07/18 03:18:10;;;;;;;14.20;5.03;;;;;;;;;;5013741;28;20207;-83
2023/07/18 03:20:40;;;;;;;12.67;5.17;;;;;;;;;;5014613;28;20203;-83
2023/07/18 03:23:10;;;;;;;12.80;4.13;;;;;;;;;;5014028;28;20207;-83
2023/07/18 03:25:38;;;;;;;8.67;3.67;;;;;;;;;;5014256;28;20225;-82
2023/07/18 03:28:07;;;;;;;5.07;3.50;;;;;;;;;;5013929;28;20226;-83
2023/07/18 03:30:36;;;;;;;12.63;5.47;;;;;;;;;;5014320;28;20203;-83
2023/07/18 03:33:04;;;;;;;8.17;4.00;;;;;;;;;;5014328;28;20222;-83
2023/07/18 03:35:33;;;;;;;0.87;0.87;;;;;;;;;;5013873;28;20226;-83
2023/07/18 03:38:02;;;;;;;0.93;0.93;;;;;;;;;;5014343;28;20231;-83
2023/07/18 03:40:32;;;;;;;6.67;3.70;;;;;;;;;;5014140;28;20294;-83
2023/07/18 03:43:01;;;;;;;3.87;2.30;;;;;;;;;;5013807;28;20244;-83
2023/07/18 03:45:29;;;;;;;1.23;0.70;;;;;;;;;;5014107;28;20210;-83
2023/07/18 03:47:58;;;;;;;1.03;0.73;;;;;;;;;;5014010;28;20203;-83
2023/07/18 03:50:26;;;;;;;1.70;1.60;;;;;;;;;;5013852;28;20207;-82
2023/07/18 03:52:55;;;;;;;0.40;0.40;;;;;;;;;;5013288;28;20208;-82
2023/07/18 03:55:23;;;;;;;4.07;3.20;;;;;;;;;;5013644;28;20199;-82
2023/07/18 03:57:53;;;;;;;4.90;2.23;;;;;;;;;;5013630;28;20249;-83
2023/07/18 04:00:22;;;;;;;3.13;1.57;;;;;;;;;;5013180;28;20211;-82
2023/07/18 04:02:50;;;;;;;9.43;3.47;;;;;;;;;;5013767;28;20200;-82
2023/07/18 04:05:19;;;;;;;0.97;0.97;;;;;;;;;;5013649;28;20276;-82
2023/07/18 04:07:48;;;;;;;13.50;3.30;;;;;;;;;;5013415;28;20199;-83
2023/07/18 04:10:17;;;;;;;7.53;3.97;;;;;;;;;;5012757;28;20206;-83
2023/07/18 04:12:45;;;;;;;5.23;2.00;;;;;;;;;;5013466;28;20210;-83
2023/07/18 04:15:15;;;;;;;4.63;2.60;;;;;;;;;;5013786;28;20204;-82
2023/07/18 04:17:44;;;;;;;12.17;3.23;;;;;;;;;;5013113;28;20219;-82
2023/07/18 04:20:19;;;;;;;5.20;2.33;;;;;;;;;;5013017;28;20246;-82
2023/07/18 04:22:48;;;;;;;9.13;3.43;;;;;;;;;;5013220;28;20200;-82
2023/07/18 04:25:17;;;;;;;12.97;4.43;;;;;;;;;;5012840;28;20211;-82
2023/07/18 04:27:47;;;;;;;11.63;4.30;;;;;;;;;;5013152;28;20223;-82
2023/07/18 04:30:17;;;;;;;10.23;4.43;;;;;;;;;;5013094;28;20226;-82
2023/07/18 04:32:48;;;;;;;8.57;3.47;;;;;;;;;;5013148;28;20203;-82
2023/07/18 04:35:17;;;;;;;13.33;4.33;;;;;;;;;;5011833;28;20301;-82
2023/07/18 04:37:46;;;;;;;7.97;4.97;;;;;;;;;;5012503;28;20261;-82
2023/07/18 04:40:15;;;;;;;4.97;2.73;;;;;;;;;;5012887;28;20259;-82
2023/07/18 04:42:43;;;;;;;8.50;4.27;;;;;;;;;;5012671;28;20225;-83
2023/07/18 04:45:12;;;;;;;18.10;4.37;;;;;;;;;;5012439;28;20203;-82
2023/07/18 04:47:42;;;;;;;13.57;3.47;;;;;;;;;;5012409;28;20207;-84
2023/07/18 04:50:10;;;;;;;8.20;3.37;;;;;;;;;;5012497;28;20257;-83
2023/07/18 04:52:39;;;;;;;5.27;3.43;;;;;;;;;;5012782;28;20206;-83
2023/07/18 04:55:08;;;;;;;9.57;3.50;;;;;;;;;;5012328;28;20219;-82
2023/07/18 04:57:37;;;;;;;9.07;3.23;;;;;;;;;;5012730;28;20258;-83
2023/07/18 05:00:06;;;;;;;8.67;3.40;;;;;;;;;;5012052;28;20203;-83
2023/07/18 05:02:35;;;;;;;4.57;2.20;;;;;;;;;;5012182;28;20198;-83
2023/07/18 05:05:06;;;;;;;7.07;2.67;;;;;;;;;;5012482;28;20207;-83
2023/07/18 05:07:34;;;;;;;8.87;3.07;;;;;;;;;;5012745;28;20198;-83
2023/07/18 05:10:03;;;;;;;8.37;3.13;;;;;;;;;;5011959;28;20207;-83
2023/07/18 05:12:31;;;;;;;8.33;3.07;;;;;;;;;;5012471;28;20265;-83
2023/07/18 05:15:00;;;;;;;10.47;2.63;;;;;;;;;;5012514;28;20215;-83
2023/07/18 05:17:29;;;;;;;4.50;2.43;;;;;;;;;;5012393;28;20215;-83
2023/07/18 05:19:57;;;;;;;6.83;1.90;;;;;;;;;;5011548;28;20271;-83
2023/07/18 05:22:27;;;;;;;7.70;1.90;;;;;;;;;;5012508;28;20211;-83
2023/07/18 05:24:56;;;;;;;4.83;2.10;;;;;;;;;;5011911;28;20308;-83
2023/07/18 05:27:24;;;;;;;6.33;2.17;;;;;;;;;;5011521;28;20217;-83
2023/07/18 05:29:55;;;;;;;12.30;3.30;;;;;;;;;;5011960;28;20208;-83
2023/07/18 05:32:23;;;;;;;5.83;2.87;;;;;;;;;;5012003;28;20200;-83
2023/07/18 05:34:52;;;;;;;10.47;3.47;;;;;;;;;;5011832;28;20196;-83
2023/07/18 05:37:21;;;;;;;6.97;1.77;;;;;;;;;;5011403;28;20216;-83
2023/07/18 05:39:51;;;;;;;6.67;2.40;;;;;;;;;;5012343;28;20207;-83
2023/07/18 05:42:20;;;;;;;11.07;2.50;;;;;;;;;;5012003;28;20195;-85
2023/07/18 05:44:48;;;;;;;8.77;3.00;;;;;;;;;;5011434;28;20207;-85
2023/07/18 05:47:17;;;;;;;3.37;1.60;;;;;;;;;;5011696;28;20203;-85
2023/07/18 05:49:45;;;;;;;5.40;2.20;;;;;;;;;;5011571;28;20200;-85
2023/07/18 05:52:14;;;;;;;10.83;3.23;;;;;;;;;;5011902;28;20217;-85
2023/07/18 05:54:42;;;;;;;6.03;2.03;;;;;;;;;;5011608;28;20204;-85
2023/07/18 05:57:12;;;;;;;6.77;3.23;;;;;;;;;;5011479;28;20234;-85
2023/07/18 05:59:41;;;;;;;12.60;4.10;;;;;;;;;;5011760;28;20195;-84
2023/07/18 06:02:09;;;;;;;4.20;2.67;;;;;;;;;;5011435;28;20212;-85
2023/07/18 06:04:38;;;;;;;7.20;3.60;;;;;;;;;;5011828;28;20211;-85
2023/07/18 06:07:07;;;;;;;7.80;3.73;;;;;;;;;;5011623;28;20200;-84
2023/07/18 06:09:35;;;;;;;11.70;3.83;;;;;;;;;;5011780;28;20214;-81
2023/07/18 06:12:08;;;;;;;10.40;2.90;;;;;;;;;;5010980;28;20195;-85
2023/07/18 06:14:38;;;;;;;5.47;2.90;;;;;;;;;;5012054;28;20204;-85
2023/07/18 06:17:07;;;;;;;4.90;1.60;;;;;;;;;;5011757;28;20225;-85
2023/07/18 06:19:39;;;;;;;11.33;6.47;;;;;;;;;;5011359;28;20204;-83
2023/07/18 06:22:09;;;;;;;6.20;2.43;;;;;;;;;;5011381;28;20210;-82
2023/07/18 06:24:38;;;;;;;5.70;2.97;;;;;;;;;;5011609;28;20204;-82
2023/07/18 06:27:07;;;;;;;9.70;4.43;;;;;;;;;;5011860;28;20204;-82
2023/07/18 06:29:40;;;;;;;9.70;3.87;;;;;;;;;;5010925;28;20219;-82
2023/07/18 06:32:11;;;;;;;9.63;2.83;;;;;;;;;;5011416;28;20202;-82
2023/07/18 06:34:40;;;;;;;5.37;3.40;;;;;;;;;;5011928;28;20211;-82
2023/07/18 06:37:22;;;;;;;5.73;2.97;;;;;;;;;;5011450;28;20321;-83
2023/07/18 06:39:51;;;;;;;10.10;3.50;;;;;;;;;;5011400;28;20195;-82
2023/07/18 06:42:24;;;;;;;8.07;3.03;;;;;;;;;;5011497;28;20242;-82
2023/07/18 06:44:55;;;;;;;8.13;3.20;;;;;;;;;;5011403;28;20265;-83
2023/07/18 06:47:23;;;;;;;11.47;3.37;;;;;;;;;;5011267;28;20250;-82
2023/07/18 06:49:52;;;;;;;3.43;2.43;;;;;;;;;;5011500;28;20215;-83
2023/07/18 06:52:21;;;;;;;7.90;3.20;;;;;;;;;;5011407;28;20206;-82
2023/07/18 06:54:50;;;;;;;5.50;2.03;;;;;;;;;;5010744;28;20188;-83
2023/07/18 06:57:23;;;;;;;8.30;3.10;;;;;;;;;;5011322;28;20234;-83
2023/07/18 06:59:56;;;;;;;5.10;2.43;;;;;;;;;;5015009;28;20208;-83
2023/07/18 07:02:31;;;;;;;5.33;2.03;;;;;;;;;;5014019;28;20295;-83
2023/07/18 07:05:00;;;;;;;6.10;2.37;;;;;;;;;;5014433;28;20203;-83
2023/07/18 07:07:32;;;;;;;7.07;3.00;;;;;;;;;;5014444;28;20202;-83
2023/07/18 07:10:11;;;;;;;7.03;3.07;;;;;;;;;;5014667;28;20214;-83
2023/07/18 07:12:49;;;;;;;8.10;1.63;;;;;;;;;;5007704;28;20235;-83
2023/07/18 07:18:10;;;;;;;2.07;1.90;;;;;;;;;;5005911;28;20222;-82
2023/07/18 07:20:44;;;;;;;6.90;2.43;;;;;;;;;;5012244;28;20208;-82
2023/07/18 07:23:16;;;;;;;2.40;2.07;;;;;;;;;;5014418;28;20210;-82
2023/07/18 07:25:45;;;;;;;2.17;0.73;;;;;;;;;;5014810;28;20310;-83
2023/07/18 07:28:17;;;;;;;4.93;1.03;;;;;;;;;;5013845;28;20256;-82
2023/07/18 07:30:50;;;;;;;7.53;3.13;;;;;;;;;;5013333;28;20304;-82
2023/07/18 07:33:19;;;;;;;0.80;0.80;;;;;;;;;;5013704;28;20220;-82
2023/07/18 07:35:48;;;;;;;7.63;2.27;;;;;;;;;;5013985;28;20224;-82
2023/07/18 07:38:21;;;;;;;0.83;0.73;;;;;;;;;;5013299;28;20236;-82
2023/07/18 07:40:54;;;;;;;7.17;2.73;;;;;;;;;;5012984;28;20206;-82
2023/07/18 07:43:27;;;;;;;11.23;3.47;;;;;;;;;;5013700;28;20199;-82
2023/07/18 07:46:05;;;;;;;5.37;2.07;;;;;;;;;;5013473;28;20293;-82
2023/07/18 07:48:36;;;;;;;1.97;1.30;;;;;;;;;;5013202;28;20188;-82
2023/07/18 07:51:05;;;;;;;5.33;1.90;;;;;;;;;;5013400;28;20227;-82
2023/07/18 07:53:38;;;;;;;0.57;0.57;;;;;;;;;;5012993;28;20286;-82
2023/07/18 07:56:06;;;;;;;0.63;0.53;;;;;;;;;;5011747;28;20208;-82
2023/07/18 07:58:40;;;;;;;5.13;1.67;;;;;;;;;;5013099;28;20249;-85
2023/07/18 08:01:24;;;;;;;1.33;1.23;;;;;;;;;;5003035;28;20293;-84
2023/07/18 08:06:47;;;;;;;4.63;2.70;;;;;;;;;;5005595;28;20206;-85
2023/07/18 08:09:23;;;;;;;2.20;1.60;;;;;;;;;;5012667;28;20227;-85
2023/07/18 08:11:52;;;;;;;7.20;1.57;;;;;;;;;;5013105;28;20206;-84
2023/07/18 08:14:23;;;;;;;1.40;1.20;;;;;;;;;;5012826;28;20227;-84
2023/07/18 08:17:16;;;;;;;0.70;0.70;;;;;;;;;;5013595;28;20210;-85
2023/07/18 08:19:51;;;;;;;3.70;1.47;;;;;;;;;;5013338;28;20222;-85
2023/07/18 08:22:24;;;;;;;0.80;0.80;;;;;;;;;;5012896;28;20209;-85
2023/07/18 08:24:58;;;;;;;10.10;2.57;;;;;;;;;;5013113;28;20210;-85
2023/07/18 08:27:42;;;;;;;1.33;1.23;;;;;;;;;;5013190;28;20221;-85
2023/07/18 08:30:13;;;;;;;4.13;1.57;;;;;;;;;;5013091;28;20204;-85
2023/07/18 08:32:43;;;;;;;1.10;0.77;;;;;;;;;;5012834;28;20257;-85
2023/07/18 08:35:14;;;;;;;3.70;1.00;;;;;;;;;;5013403;28;20210;-85
2023/07/18 08:37:49;;;;;;;1.60;1.27;;;;;;;;;;5011661;28;20214;-85
2023/07/18 08:40:17;;;;;;;14.07;1.53;;;;;;;;;;4993465;28;20247;-85
2023/07/18 08:42:46;;;;;;;2.37;1.00;;;;;;;;;;4992904;28;20192;-85
2023/07/18 08:45:18;;;;;;;4.03;0.70;;;;;;;;;;4993094;28;20246;-85
2023/07/18 08:47:58;;;;;;;4.00;1.13;;;;;;;;;;4993026;28;20208;-84
2023/07/18 08:50:32;;;;;;;0.93;0.70;;;;;;;;;;4993171;28;20219;-85
2023/07/18 08:53:07;;;;;;;2.03;1.40;;;;;;;;;;4993486;28;20216;-85
2023/07/18 08:55:36;;;;;;;3.77;1.37;;;;;;;;;;4993174;28;20209;-85
2023/07/18 08:58:14;;;;;;;0.40;0.40;;;;;;;;;;4992436;28;20330;-85
2023/07/18 09:00:46;;;;;;;3.67;1.87;;;;;;;;;;4992528;28;20196;-85
2023/07/18 09:03:25;;;;;;;2.73;1.20;;;;;;;;;;4992931;28;20250;-84
2023/07/18 09:05:58;;;;;;;2.93;1.17;;;;;;;;;;4992659;28;20198;-84
2023/07/18 09:08:26;;;;;;;10.97;1.83;;;;;;;;;;4992702;28;20207;-84
2023/07/18 09:11:02;;;;;;;1.57;1.17;;;;;;;;;;4992867;28;20207;-84
2023/07/18 09:13:43;;;;;;;6.57;1.77;;;;;;;;;;4992609;28;20234;-84
2023/07/18 09:16:17;;;;;;;2.03;1.37;;;;;;;;;;4992726;28;20219;-84
2023/07/18 09:18:49;;;;;;;6.47;2.00;;;;;;;;;;4992224;28;20205;-84
2023/07/18 09:21:22;;;;;;;2.53;0.70;;;;;;;;;;4992322;28;20201;-84
2023/07/18 09:23:59;;;;;;;3.70;1.40;;;;;;;;;;4992042;28;20195;-84
2023/07/18 09:26:38;;;;;;;3.07;1.83;;;;;;;;;;4992860;28;20199;-84
2023/07/18 09:29:17;;;;;;;1.50;0.63;;;;;;;;;;4992635;28;20316;-85
2023/07/18 09:31:52;;;;;;;4.03;1.40;;;;;;;;;;4992450;28;20300;-85
2023/07/18 09:34:24;;;;;;;2.03;1.37;;;;;;;;;;4992591;28;20267;-86
2023/07/18 09:36:57;;;;;;;1.93;1.73;;;;;;;;;;4992698;28;20299;-83
2023/07/18 09:39:29;;;;;;;0.83;0.83;;;;;;;;;;5006882;28;20271;-83
2023/07/18 09:42:00;;;;;;;3.27;2.03;;;;;;;;;;5011803;28;20298;-83
2023/07/18 09:44:41;;;;;;;1.33;1.23;;;;;;;;;;5011822;28;20201;-83
2023/07/18 09:47:14;;;;;;;0.63;0.60;;;;;;;;;;5011771;28;20242;-83
2023/07/18 09:49:45;;;;;;;1.20;1.10;;;;;;;;;;5011432;28;20194;-83
2023/07/18 09:52:16;;;;;;;2.60;1.60;;;;;;;;;;5012259;28;20197;-83
2023/07/18 09:54:48;;;;;;;1.10;1.00;;;;;;;;;;5012034;28;20204;-83
2023/07/18 09:57:18;;;;;;;3.00;1.30;;;;;;;;;;5011466;28;20206;-83
2023/07/18 09:59:52;;;;;;;4.83;1.57;;;;;;;;;;5011538;28;20213;-83
2023/07/18 10:02:27;;;;;;;5.03;1.93;;;;;;;;;;5012398;28;20231;-83
2023/07/18 10:05:02;;;;;;;2.63;1.80;;;;;;;;;;5011567;28;20274;-83
2023/07/18 10:07:42;;;;;;;1.27;1.13;;;;;;;;;;5011443;28;20193;-83
2023/07/18 10:10:11;;;;;;;2.37;1.00;;;;;;;;;;5011664;28;20208;-84
2023/07/18 10:12:57;;;;;;;1.73;1.00;;;;;;;;;;5011385;28;20260;-83
2023/07/18 10:15:26;;;;;;;2.27;2.03;;;;;;;;;;5011422;28;20303;-83
2023/07/18 10:18:12;;;;;;;1.93;1.13;;;;;;;;;;5011476;28;20252;-84
2023/07/18 10:20:57;;;;;;;3.07;1.40;;;;;;;;;;5011176;28;20225;-83
2023/07/18 10:23:52;;;;;;;0.63;0.63;;;;;;;;;;5011530;28;20194;-83
2023/07/18 10:26:32;;;;;;;0.83;0.83;;;;;;;;;;4990059;28;20210;-83
2023/07/18 10:29:07;;;;;;;0.73;0.73;;;;;;;;;;5011574;28;20222;-84
2023/07/18 10:31:46;;;;;;;2.93;0.93;;;;;;;;;;5011279;28;20195;-83
2023/07/18 10:34:15;;;;;;;3.93;1.60;;;;;;;;;;5014096;28;20320;-83
2023/07/18 10:36:58;;;;;;;4.03;1.60;;;;;;;;;;5015327;28;20189;-83
2023/07/18 10:39:38;;;;;;;2.00;1.67;;;;;;;;;;5014816;28;20293;-83
2023/07/18 10:42:12;;;;;;;1.60;0.73;;;;;;;;;;5015226;28;20298;-83
2023/07/18 10:44:43;;;;;;;2.07;1.10;;;;;;;;;;5015055;28;20238;-83
2023/07/18 10:47:18;;;;;;;0.50;0.50;;;;;;;;;;5014940;28;20205;-82
2023/07/18 10:49:48;;;;;;;1.80;1.07;;;;;;;;;;5014697;28;20196;-82
2023/07/18 10:52:20;;;;;;;10.10;2.20;;;;;;;;;;5015072;28;20205;-83
2023/07/18 10:54:54;;;;;;;4.17;0.80;;;;;;;;;;5014618;28;20223;-83
2023/07/18 10:57:27;;;;;;;1.17;0.90;;;;;;;;;;5014907;28;20261;-82
2023/07/18 10:59:58;;;;;;;2.73;1.17;;;;;;;;;;5014086;28;20260;-83
2023/07/18 11:05:29;;;;;;;11.33;1.33;;;;;;;;;;5011710;28;20203;-83
2023/07/18 11:08:04;;;;;;;3.13;1.70;;;;;;;;;;5014108;28;20194;-83
2023/07/18 11:10:44;;;;;;;1.60;1.00;;;;;;;;;;5014693;28;20214;-83
2023/07/18 11:13:16;;;;;;;3.83;1.27;;;;;;;;;;5014293;28;20210;-83
2023/07/18 11:15:45;;;;;;;2.10;1.90;;;;;;;;;;5014585;28;20211;-83
2023/07/18 11:18:24;;;;;;;1.00;1.00;;;;;;;;;;5014627;28;20210;-83
2023/07/18 11:21:01;;;;;;;0.43;0.43;;;;;;;;;;5014531;28;20223;-83
2023/07/18 11:23:35;;;;;;;0.63;0.50;;;;;;;;;;5014356;28;20227;-83
2023/07/18 11:26:14;;;;;;;1.63;1.53;;;;;;;;;;5013923;28;20202;-85
2023/07/18 11:28:45;;;;;;;2.17;1.43;;;;;;;;;;5014262;28;20230;-86
2023/07/18 11:31:22;;;;;;;0.80;0.80;;;;;;;;;;5014903;28;20209;-85
2023/07/18 11:34:12;;;;;;;3.70;1.63;;;;;;;;;;5014223;28;20207;-85
2023/07/18 11:36:41;;;;;;;4.13;1.50;;;;;;;;;;5014498;28;20213;-85
2023/07/18 11:39:21;;;;;;;0.67;0.67;;;;;;;;;;5013460;28;20223;-85
2023/07/18 11:41:52;;;;;;;0.73;0.73;;;;;;;;;;5014037;28;20203;-85
2023/07/18 11:44:38;;;;;;;6.13;1.40;;;;;;;;;;5013292;28;20223;-86
2023/07/18 11:47:13;;;;;;;1.20;0.70;;;;;;;;;;5014235;28;20288;-87
2023/07/18 11:50:02;;;;;;;2.07;1.10;;;;;;;;;;5013599;28;20235;-85
2023/07/18 11:52:36;;;;;;;5.70;1.27;;;;;;;;;;5013129;28;20216;-85
2023/07/18 11:55:35;;;;;;;0.50;0.47;;;;;;;;;;5013547;28;20207;-85
2023/07/18 11:58:13;;;;;;;1.20;1.20;;;;;;;;;;5013890;28;20265;-85
2023/07/18 12:00:47;;;;;;;4.37;1.10;;;;;;;;;;5012946;28;20228;-85
2023/07/18 12:03:38;;;;;;;0.77;0.70;;;;;;;;;;5013939;28;20262;-85
2023/07/18 12:06:12;;;;;;;0.80;0.53;;;;;;;;;;5013737;28;20203;-86
2023/07/18 12:08:46;;;;;;;3.77;1.00;;;;;;;;;;5013441;28;20211;-85
2023/07/18 12:14:21;;;;;;;1.83;1.10;;;;;;;;;;5013328;28;20245;-86
2023/07/18 12:17:10;;;;;;;0.50;0.50;;;;;;;;;;5013488;28;20225;-86
2023/07/18 12:19:39;;;;;;;1.97;1.20;;;;;;;;;;5012377;28;20202;-84
2023/07/18 12:22:09;;;;;;;2.53;0.93;;;;;;;;;;5013281;28;20217;-83
2023/07/18 12:24:39;;;;;;;3.87;1.57;;;;;;;;;;5013544;28;20203;-83
2023/07/18 12:27:10;;;;;;;2.30;1.57;;;;;;;;;;5012610;28;20219;-84
2023/07/18 12:29:50;;;;;;;3.80;0.87;;;;;;;;;;5012979;28;20202;-84
2023/07/18 12:32:35;;;;;;;0.63;0.60;;;;;;;;;;5013098;28;20259;-83
2023/07/18 12:35:28;;;;;;;0.83;0.83;;;;;;;;;;5013194;28;20196;-83
2023/07/18 12:38:04;;;;;;;1.43;1.00;;;;;;;;;;5013046;28;20231;-84
2023/07/18 12:46:58;;;;;;;2.53;0.77;;;;;;;;;;4942987;28;20209;-83
2023/07/18 12:49:29;;;;;;;0.73;0.70;;;;;;;;;;5013174;28;20199;-84
2023/07/18 12:52:04;;;;;;;0.40;0.40;;;;;;;;;;5012865;28;20260;-83
2023/07/18 12:54:34;;;;;;;0.67;0.67;;;;;;;;;;5012564;28;20213;-84
2023/07/18 12:57:07;;;;;;;3.50;1.40;;;;;;;;;;5012207;28;20217;-83
2023/07/18 12:59:38;;;;;;;1.60;0.50;;;;;;;;;;5012564;28;20196;-83
2023/07/18 13:02:10;;;;;;;1.53;0.80;;;;;;;;;;5011974;28;20252;-83
2023/07/18 13:04:39;;;;;;;1.23;1.13;;;;;;;;;;5012354;28;20264;-83
2023/07/18 13:07:08;;;;;;;12.53;1.03;;;;;;;;;;5013122;28;20210;-82
2023/07/18 13:09:38;;;;;;;1.13;1.03;;;;;;;;;;5012442;28;20215;-83
2023/07/18 13:12:07;;;;;;;5.03;1.27;;;;;;;;;;5012026;28;20206;-83
2023/07/18 13:14:39;;;;;;;0.67;0.53;;;;;;;;;;5012591;28;20253;-82
2023/07/18 13:17:12;;;;;;;0.57;0.57;;;;;;;;;;5012475;28;20197;-84
2023/07/18 13:19:43;;;;;;;0.80;0.57;;;;;;;;;;5012180;28;20204;-83
2023/07/18 13:22:27;;;;;;;0.57;0.57;;;;;;;;;;5011915;28;20272;-83
2023/07/18 13:24:58;;;;;;;3.93;0.90;;;;;;;;;;4961653;28;20210;-83
2023/07/18 13:27:28;;;;;;;0.70;0.63;;;;;;;;;;5011975;28;20222;-83
2023/07/18 13:30:00;;;;;;;2.40;1.33;;;;;;;;;;5011845;28;20257;-83
2023/07/18 13:32:30;;;;;;;0.43;0.43;;;;;;;;;;5012415;28;20208;-83
2023/07/18 13:34:59;;;;;;;0.57;0.43;;;;;;;;;;5012311;28;20205;-83
2023/07/18 13:37:27;;;;;;;2.70;1.10;;;;;;;;;;5012045;28;20293;-83
2023/07/18 13:39:56;;;;;;;1.27;1.10;;;;;;;;;;5011799;28;20243;-83
2023/07/18 13:42:27;;;;;;;2.47;1.27;;;;;;;;;;5012003;28;20234;-83
2023/07/18 13:44:58;;;;;;;0.83;0.83;;;;;;;;;;5012637;28;20218;-84
2023/07/18 13:47:27;;;;;;;3.43;1.13;;;;;;;;;;5011689;28;20210;-84
2023/07/18 13:49:59;;;;;;;1.27;0.50;;;;;;;;;;5011724;28;20199;-83
2023/07/18 13:52:28;;;;;;;1.37;0.87;;;;;;;;;;5011919;28;20207;-84
2023/07/18 13:54:58;;;;;;;2.73;0.50;;;;;;;;;;5011546;28;20213;-82
2023/07/18 13:57:27;;;;;;;0.57;0.57;;;;;;;;;;5011833;28;20223;-83
2023/07/18 14:00:02;;;;;;;0.83;0.50;;;;;;;;;;5011878;28;20206;-83
2023/07/18 14:02:33;;;;;;;0.80;0.80;;;;;;;;;;5011920;28;20231;-83
2023/07/18 14:05:04;;;;;;;2.60;1.47;;;;;;;;;;5011583;28;20213;-84
2023/07/18 14:07:33;;;;;;;0.97;0.97;;;;;;;;;;5014107;28;20237;-84
2023/07/18 14:10:02;;;;;;;2.57;0.80;;;;;;;;;;5015584;28;20218;-85
2023/07/18 14:12:31;;;;;;;0.50;0.50;;;;;;;;;;5015034;28;20249;-84
2023/07/18 14:14:59;;;;;;;1.37;0.80;;;;;;;;;;5015466;28;20224;-84
2023/07/18 14:17:28;;;;;;;2.00;0.80;;;;;;;;;;5015741;28;20238;-84
2023/07/18 14:19:58;;;;;;;0.50;0.50;;;;;;;;;;5015288;28;20238;-85
2023/07/18 14:22:28;;;;;;;0.67;0.67;;;;;;;;;;5015492;28;20318;-84
2023/07/18 14:25:03;;;;;;;1.17;1.03;;;;;;;;;;5015119;28;20202;-85
2023/07/18 14:27:31;;;;;;;0.53;0.53;;;;;;;;;;5015308;28;20234;-85
2023/07/18 14:30:07;;;;;;;3.10;1.10;;;;;;;;;;5014828;28;20199;-85
2023/07/18 14:32:39;;;;;;;1.70;1.27;;;;;;;;;;5015688;28;20198;-85
2023/07/18 14:35:10;;;;;;;0.60;0.60;;;;;;;;;;5015208;28;20203;-85
2023/07/18 14:37:45;;;;;;;0.40;0.40;;;;;;;;;;5015245;28;20207;-85
2023/07/18 14:40:18;;;;;;;0.60;0.60;;;;;;;;;;5014276;28;20234;-84
2023/07/18 14:42:57;;;;;;;0.97;0.90;;;;;;;;;;5015311;28;20233;-84
2023/07/18 14:45:33;;;;;;;1.70;0.97;;;;;;;;;;5014929;28;20202;-84
2023/07/18 14:48:12;;;;;;;1.60;0.87;;;;;;;;;;5015093;28;20230;-84
2023/07/18 14:50:58;;;;;;;1.13;0.73;;;;;;;;;;4999099;28;20199;-84
2023/07/18 14:53:47;;;;;;;0.67;0.67;;;;;;;;;;5014980;28;20194;-84
2023/07/18 14:56:27;;;;;;;0.93;0.93;;;;;;;;;;5012056;28;20222;-84
2023/07/18 14:58:59;;;;;;;1.13;1.00;;;;;;;;;;5014842;28;20209;-84
2023/07/18 15:01:47;;;;;;;5.17;0.60;;;;;;;;;;5014835;28;20211;-84
2023/07/18 15:04:22;;;;;;;1.93;0.77;;;;;;;;;;5014441;28;20302;-83
2023/07/18 15:07:13;;;;;;;0.47;0.47;;;;;;;;;;5014496;28;20325;-84
2023/07/18 15:12:30;;;;;;;0.33;0.33;;;;;;;;;;5011928;28;20291;-84
2023/07/18 15:14:59;;;;;;;0.97;0.60;;;;;;;;;;5014941;28;20199;-84
2023/07/18 15:17:27;;;;;;;0.47;0.47;;;;;;;;;;5014982;28;20233;-84
2023/07/18 15:19:56;;;;;;;1.90;0.83;;;;;;;;;;5014121;28;20205;-84
2023/07/18 15:22:24;;;;;;;0.67;0.67;;;;;;;;;;5014402;28;20231;-83
2023/07/18 15:24:53;;;;;;;0.50;0.50;;;;;;;;;;5014402;28;20193;-84
2023/07/18 15:27:22;;;;;;;0.87;0.63;;;;;;;;;;5014578;28;20220;-84
2023/07/18 15:29:52;;;;;;;0.97;0.97;;;;;;;;;;5013893;28;20196;-84